sensor_id;sensor_type;location;lat;lon;timestamp;P1;durP1;ratioP1;P2;durP2;ratioP2
70049;SDS011;57391;51.306;22.680;2023-09-19T00:00:59;11.20;;;7.10;;
70049;SDS011;57391;51.306;22.680;2023-09-19T00:03:39;11.20;;;7.30;;
70049;SDS011;57391;51.306;22.680;2023-09-19T00:06:06;10.80;;;6.90;;
70049;SDS011;57391;51.306;22.680;2023-09-19T00:08:36;11.00;;;6.80;;
70049;SDS011;57391;51.306;22.680;2023-09-19T00:11:03;12.20;;;7.40;;
70049;SDS011;57391;51.306;22.680;2023-09-19T00:13:32;11.90;;;7.00;;
70049;SDS011;57391;51.306;22.680;2023-09-19T00:16:00;11.30;;;7.00;;
70049;SDS011;57391;51.306;22.680;2023-09-19T00:18:27;11.10;;;7.10;;
70049;SDS011;57391;51.306;22.680;2023-09-19T00:20:58;11.30;;;7.10;;
70049;SDS011;57391;51.306;22.680;2023-09-19T00:23:25;11.50;;;7.60;;
70049;SDS011;57391;51.306;22.680;2023-09-19T00:25:53;11.30;;;7.00;;
70049;SDS011;57391;51.306;22.680;2023-09-19T00:28:24;12.30;;;7.10;;
70049;SDS011;57391;51.306;22.680;2023-09-19T00:30:53;12.70;;;7.10;;
70049;SDS011;57391;51.306;22.680;2023-09-19T00:33:23;10.90;;;6.90;;
70049;SDS011;57391;51.306;22.680;2023-09-19T00:35:52;10.70;;;6.80;;
70049;SDS011;57391;51.306;22.680;2023-09-19T00:38:20;11.60;;;7.30;;
70049;SDS011;57391;51.306;22.680;2023-09-19T00:40:49;11.40;;;6.70;;
70049;SDS011;57391;51.306;22.680;2023-09-19T00:43:17;11.60;;;7.00;;
70049;SDS011;57391;51.306;22.680;2023-09-19T00:45:46;14.10;;;9.10;;
70049;SDS011;57391;51.306;22.680;2023-09-19T00:48:19;12.80;;;7.10;;
70049;SDS011;57391;51.306;22.680;2023-09-19T00:50:48;11.00;;;6.70;;
70049;SDS011;57391;51.306;22.680;2023-09-19T00:53:19;11.80;;;6.90;;
70049;SDS011;57391;51.306;22.680;2023-09-19T00:55:49;11.40;;;6.90;;
70049;SDS011;57391;51.306;22.680;2023-09-19T00:58:18;11.70;;;7.10;;
70049;SDS011;57391;51.306;22.680;2023-09-19T01:00:48;11.50;;;6.90;;
70049;SDS011;57391;51.306;22.680;2023-09-19T01:03:15;14.30;;;7.40;;
70049;SDS011;57391;51.306;22.680;2023-09-19T01:05:44;11.50;;;7.00;;
70049;SDS011;57391;51.306;22.680;2023-09-19T01:08:11;11.80;;;7.20;;
70049;SDS011;57391;51.306;22.680;2023-09-19T01:11:02;13.30;;;7.50;;
70049;SDS011;57391;51.306;22.680;2023-09-19T01:14:02;11.20;;;7.20;;
70049;SDS011;57391;51.306;22.680;2023-09-19T01:17:04;13.40;;;7.70;;
70049;SDS011;57391;51.306;22.680;2023-09-19T01:26:26;13.00;;;7.30;;
70049;SDS011;57391;51.306;22.680;2023-09-19T01:29:42;11.60;;;6.90;;
70049;SDS011;57391;51.306;22.680;2023-09-19T01:32:18;12.40;;;7.50;;
70049;SDS011;57391;51.306;22.680;2023-09-19T01:34:54;12.40;;;7.60;;
70049;SDS011;57391;51.306;22.680;2023-09-19T01:37:30;12.00;;;7.80;;
70049;SDS011;57391;51.306;22.680;2023-09-19T01:40:02;12.60;;;7.40;;
70049;SDS011;57391;51.306;22.680;2023-09-19T01:49:24;13.60;;;7.50;;
70049;SDS011;57391;51.306;22.680;2023-09-19T01:52:12;12.50;;;7.10;;
70049;SDS011;57391;51.306;22.680;2023-09-19T01:54:52;11.30;;;7.30;;
70049;SDS011;57391;51.306;22.680;2023-09-19T01:57:29;11.30;;;7.20;;
70049;SDS011;57391;51.306;22.680;2023-09-19T02:00:05;11.00;;;7.30;;
70049;SDS011;57391;51.306;22.680;2023-09-19T02:02:46;12.20;;;7.50;;
70049;SDS011;57391;51.306;22.680;2023-09-19T02:05:22;13.10;;;7.40;;
70049;SDS011;57391;51.306;22.680;2023-09-19T02:07:54;13.10;;;6.90;;
70049;SDS011;57391;51.306;22.680;2023-09-19T02:10:22;11.50;;;7.20;;
70049;SDS011;57391;51.306;22.680;2023-09-19T02:12:50;13.20;;;7.50;;
70049;SDS011;57391;51.306;22.680;2023-09-19T02:15:18;12.10;;;7.40;;
70049;SDS011;57391;51.306;22.680;2023-09-19T02:17:45;11.50;;;7.50;;
70049;SDS011;57391;51.306;22.680;2023-09-19T02:20:12;13.00;;;7.40;;
70049;SDS011;57391;51.306;22.680;2023-09-19T02:22:41;11.30;;;7.00;;
70049;SDS011;57391;51.306;22.680;2023-09-19T02:25:09;11.40;;;7.20;;
70049;SDS011;57391;51.306;22.680;2023-09-19T02:27:36;15.50;;;7.60;;
70049;SDS011;57391;51.306;22.680;2023-09-19T02:30:04;11.20;;;7.20;;
70049;SDS011;57391;51.306;22.680;2023-09-19T02:32:32;10.40;;;6.80;;
70049;SDS011;57391;51.306;22.680;2023-09-19T02:35:03;11.60;;;7.30;;
70049;SDS011;57391;51.306;22.680;2023-09-19T02:37:31;12.30;;;7.20;;
70049;SDS011;57391;51.306;22.680;2023-09-19T02:39:59;14.10;;;7.30;;
70049;SDS011;57391;51.306;22.680;2023-09-19T02:42:26;11.00;;;6.20;;
70049;SDS011;57391;51.306;22.680;2023-09-19T02:44:53;10.80;;;6.70;;
70049;SDS011;57391;51.306;22.680;2023-09-19T02:47:20;11.80;;;7.00;;
70049;SDS011;57391;51.306;22.680;2023-09-19T02:49:47;11.10;;;7.00;;
70049;SDS011;57391;51.306;22.680;2023-09-19T02:52:14;11.00;;;6.70;;
70049;SDS011;57391;51.306;22.680;2023-09-19T02:54:41;11.00;;;6.50;;
70049;SDS011;57391;51.306;22.680;2023-09-19T02:57:11;11.10;;;6.70;;
70049;SDS011;57391;51.306;22.680;2023-09-19T02:59:40;9.50;;;6.20;;
70049;SDS011;57391;51.306;22.680;2023-09-19T03:02:09;11.40;;;6.40;;
70049;SDS011;57391;51.306;22.680;2023-09-19T03:04:36;11.60;;;7.00;;
70049;SDS011;57391;51.306;22.680;2023-09-19T03:07:03;11.00;;;6.60;;
70049;SDS011;57391;51.306;22.680;2023-09-19T03:09:30;11.40;;;6.40;;
70049;SDS011;57391;51.306;22.680;2023-09-19T03:11:57;13.00;;;6.90;;
70049;SDS011;57391;51.306;22.680;2023-09-19T03:14:26;11.90;;;6.60;;
70049;SDS011;57391;51.306;22.680;2023-09-19T03:16:57;11.40;;;6.80;;
70049;SDS011;57391;51.306;22.680;2023-09-19T03:19:24;11.10;;;6.40;;
70049;SDS011;57391;51.306;22.680;2023-09-19T03:21:53;12.00;;;6.70;;
70049;SDS011;57391;51.306;22.680;2023-09-19T03:24:20;11.60;;;6.60;;
70049;SDS011;57391;51.306;22.680;2023-09-19T03:26:47;11.80;;;6.30;;
70049;SDS011;57391;51.306;22.680;2023-09-19T03:29:15;11.60;;;6.70;;
70049;SDS011;57391;51.306;22.680;2023-09-19T03:31:44;10.10;;;6.20;;
70049;SDS011;57391;51.306;22.680;2023-09-19T03:34:13;10.60;;;6.50;;
70049;SDS011;57391;51.306;22.680;2023-09-19T03:36:40;12.30;;;6.80;;
70049;SDS011;57391;51.306;22.680;2023-09-19T03:39:07;11.50;;;6.70;;
70049;SDS011;57391;51.306;22.680;2023-09-19T03:41:34;12.30;;;6.40;;
70049;SDS011;57391;51.306;22.680;2023-09-19T03:44:03;11.50;;;6.80;;
70049;SDS011;57391;51.306;22.680;2023-09-19T03:46:31;9.60;;;6.00;;
70049;SDS011;57391;51.306;22.680;2023-09-19T03:48:59;10.20;;;6.70;;
70049;SDS011;57391;51.306;22.680;2023-09-19T03:51:26;10.40;;;6.10;;
70049;SDS011;57391;51.306;22.680;2023-09-19T03:53:53;10.00;;;6.30;;
70049;SDS011;57391;51.306;22.680;2023-09-19T03:56:20;11.00;;;6.60;;
70049;SDS011;57391;51.306;22.680;2023-09-19T03:58:47;10.60;;;6.40;;
70049;SDS011;57391;51.306;22.680;2023-09-19T04:01:15;10.20;;;6.20;;
70049;SDS011;57391;51.306;22.680;2023-09-19T04:03:43;13.00;;;6.70;;
70049;SDS011;57391;51.306;22.680;2023-09-19T04:06:14;10.20;;;6.50;;
70049;SDS011;57391;51.306;22.680;2023-09-19T04:08:42;9.80;;;6.50;;
70049;SDS011;57391;51.306;22.680;2023-09-19T04:11:10;10.10;;;5.90;;
70049;SDS011;57391;51.306;22.680;2023-09-19T04:13:37;12.00;;;6.60;;
70049;SDS011;57391;51.306;22.680;2023-09-19T04:16:04;10.70;;;6.60;;
70049;SDS011;57391;51.306;22.680;2023-09-19T04:18:32;11.50;;;6.20;;
70049;SDS011;57391;51.306;22.680;2023-09-19T04:21:04;9.70;;;6.40;;
70049;SDS011;57391;51.306;22.680;2023-09-19T04:23:32;9.90;;;6.20;;
70049;SDS011;57391;51.306;22.680;2023-09-19T04:25:59;10.50;;;6.20;;
70049;SDS011;57391;51.306;22.680;2023-09-19T04:28:26;9.50;;;6.30;;
70049;SDS011;57391;51.306;22.680;2023-09-19T04:30:56;11.90;;;6.90;;
70049;SDS011;57391;51.306;22.680;2023-09-19T04:33:25;11.10;;;6.20;;
70049;SDS011;57391;51.306;22.680;2023-09-19T04:35:53;10.90;;;6.50;;
70049;SDS011;57391;51.306;22.680;2023-09-19T04:38:20;11.00;;;6.40;;
70049;SDS011;57391;51.306;22.680;2023-09-19T04:40:47;9.60;;;6.60;;
70049;SDS011;57391;51.306;22.680;2023-09-19T04:43:14;10.40;;;6.40;;
70049;SDS011;57391;51.306;22.680;2023-09-19T04:45:41;11.30;;;7.00;;
70049;SDS011;57391;51.306;22.680;2023-09-19T04:48:09;9.90;;;6.50;;
70049;SDS011;57391;51.306;22.680;2023-09-19T04:50:37;10.70;;;6.10;;
70049;SDS011;57391;51.306;22.680;2023-09-19T04:53:05;11.00;;;6.80;;
70049;SDS011;57391;51.306;22.680;2023-09-19T04:55:33;11.80;;;6.60;;
70049;SDS011;57391;51.306;22.680;2023-09-19T04:58:00;11.20;;;6.40;;
70049;SDS011;57391;51.306;22.680;2023-09-19T05:00:27;11.70;;;6.20;;
70049;SDS011;57391;51.306;22.680;2023-09-19T05:02:57;10.50;;;6.70;;
70049;SDS011;57391;51.306;22.680;2023-09-19T05:05:24;11.20;;;6.70;;
70049;SDS011;57391;51.306;22.680;2023-09-19T05:07:52;11.50;;;6.50;;
70049;SDS011;57391;51.306;22.680;2023-09-19T05:10:22;12.10;;;6.90;;
70049;SDS011;57391;51.306;22.680;2023-09-19T05:12:52;12.00;;;6.90;;
70049;SDS011;57391;51.306;22.680;2023-09-19T05:15:20;11.40;;;7.00;;
70049;SDS011;57391;51.306;22.680;2023-09-19T05:17:51;11.40;;;6.80;;
70049;SDS011;57391;51.306;22.680;2023-09-19T05:20:21;10.30;;;6.40;;
70049;SDS011;57391;51.306;22.680;2023-09-19T05:23:05;10.10;;;6.50;;
70049;SDS011;57391;51.306;22.680;2023-09-19T05:25:39;10.60;;;6.90;;
70049;SDS011;57391;51.306;22.680;2023-09-19T05:28:08;10.80;;;7.00;;
70049;SDS011;57391;51.306;22.680;2023-09-19T05:30:38;11.40;;;6.80;;
70049;SDS011;57391;51.306;22.680;2023-09-19T05:33:05;11.30;;;6.60;;
70049;SDS011;57391;51.306;22.680;2023-09-19T05:35:32;11.60;;;6.80;;
70049;SDS011;57391;51.306;22.680;2023-09-19T05:38:00;11.70;;;6.50;;
70049;SDS011;57391;51.306;22.680;2023-09-19T05:40:27;11.40;;;6.30;;
70049;SDS011;57391;51.306;22.680;2023-09-19T05:42:54;13.70;;;5.90;;
70049;SDS011;57391;51.306;22.680;2023-09-19T05:45:21;9.70;;;6.10;;
70049;SDS011;57391;51.306;22.680;2023-09-19T05:47:52;8.60;;;5.70;;
70049;SDS011;57391;51.306;22.680;2023-09-19T05:50:22;8.70;;;5.20;;
70049;SDS011;57391;51.306;22.680;2023-09-19T05:52:52;9.20;;;5.60;;
70049;SDS011;57391;51.306;22.680;2023-09-19T05:55:19;8.40;;;5.50;;
70049;SDS011;57391;51.306;22.680;2023-09-19T05:57:53;9.40;;;5.30;;
70049;SDS011;57391;51.306;22.680;2023-09-19T06:00:22;10.60;;;6.20;;
70049;SDS011;57391;51.306;22.680;2023-09-19T06:02:54;9.90;;;5.60;;
70049;SDS011;57391;51.306;22.680;2023-09-19T06:05:25;8.30;;;5.30;;
70049;SDS011;57391;51.306;22.680;2023-09-19T06:07:54;11.40;;;5.70;;
70049;SDS011;57391;51.306;22.680;2023-09-19T06:10:21;9.00;;;5.90;;
70049;SDS011;57391;51.306;22.680;2023-09-19T06:12:49;9.40;;;5.70;;
70049;SDS011;57391;51.306;22.680;2023-09-19T06:15:17;10.40;;;6.00;;
70049;SDS011;57391;51.306;22.680;2023-09-19T06:17:50;9.90;;;5.70;;
70049;SDS011;57391;51.306;22.680;2023-09-19T06:20:26;8.50;;;5.80;;
70049;SDS011;57391;51.306;22.680;2023-09-19T06:22:53;9.10;;;5.70;;
70049;SDS011;57391;51.306;22.680;2023-09-19T06:25:21;9.00;;;5.80;;
70049;SDS011;57391;51.306;22.680;2023-09-19T06:27:49;8.80;;;5.80;;
70049;SDS011;57391;51.306;22.680;2023-09-19T06:30:22;9.60;;;5.40;;
70049;SDS011;57391;51.306;22.680;2023-09-19T06:32:57;10.40;;;5.60;;
70049;SDS011;57391;51.306;22.680;2023-09-19T06:35:25;10.60;;;6.20;;
70049;SDS011;57391;51.306;22.680;2023-09-19T06:37:53;10.40;;;5.80;;
70049;SDS011;57391;51.306;22.680;2023-09-19T06:40:20;10.40;;;5.10;;
70049;SDS011;57391;51.306;22.680;2023-09-19T06:42:50;8.90;;;5.40;;
70049;SDS011;57391;51.306;22.680;2023-09-19T06:45:19;9.50;;;5.40;;
70049;SDS011;57391;51.306;22.680;2023-09-19T06:47:50;8.00;;;5.20;;
70049;SDS011;57391;51.306;22.680;2023-09-19T06:50:18;11.50;;;5.80;;
70049;SDS011;57391;51.306;22.680;2023-09-19T06:52:49;9.20;;;5.60;;
70049;SDS011;57391;51.306;22.680;2023-09-19T06:55:18;9.00;;;5.20;;
70049;SDS011;57391;51.306;22.680;2023-09-19T06:57:47;9.30;;;5.80;;
70049;SDS011;57391;51.306;22.680;2023-09-19T07:00:15;8.80;;;5.30;;
70049;SDS011;57391;51.306;22.680;2023-09-19T07:02:45;11.10;;;5.40;;
70049;SDS011;57391;51.306;22.680;2023-09-19T07:05:20;8.90;;;5.40;;
70049;SDS011;57391;51.306;22.680;2023-09-19T07:07:48;10.60;;;5.00;;
70049;SDS011;57391;51.306;22.680;2023-09-19T07:10:15;9.40;;;5.60;;
70049;SDS011;57391;51.306;22.680;2023-09-19T07:12:42;10.40;;;6.00;;
70049;SDS011;57391;51.306;22.680;2023-09-19T07:15:09;9.80;;;5.30;;
70049;SDS011;57391;51.306;22.680;2023-09-19T07:17:36;9.50;;;5.70;;
70049;SDS011;57391;51.306;22.680;2023-09-19T07:20:03;11.40;;;5.70;;
70049;SDS011;57391;51.306;22.680;2023-09-19T07:22:34;8.90;;;5.50;;
70049;SDS011;57391;51.306;22.680;2023-09-19T07:25:01;8.50;;;5.30;;
70049;SDS011;57391;51.306;22.680;2023-09-19T07:27:28;9.90;;;4.90;;
70049;SDS011;57391;51.306;22.680;2023-09-19T07:29:55;11.20;;;5.50;;
70049;SDS011;57391;51.306;22.680;2023-09-19T07:32:22;11.50;;;5.70;;
70049;SDS011;57391;51.306;22.680;2023-09-19T07:34:49;11.70;;;5.20;;
70049;SDS011;57391;51.306;22.680;2023-09-19T07:37:16;10.10;;;5.20;;
70049;SDS011;57391;51.306;22.680;2023-09-19T07:39:45;9.60;;;4.90;;
70049;SDS011;57391;51.306;22.680;2023-09-19T07:42:12;7.50;;;5.00;;
70049;SDS011;57391;51.306;22.680;2023-09-19T07:44:44;9.60;;;5.40;;
70049;SDS011;57391;51.306;22.680;2023-09-19T07:47:14;8.10;;;5.40;;
70049;SDS011;57391;51.306;22.680;2023-09-19T07:49:41;9.70;;;5.30;;
70049;SDS011;57391;51.306;22.680;2023-09-19T07:52:11;10.30;;;5.60;;
70049;SDS011;57391;51.306;22.680;2023-09-19T07:54:39;10.70;;;5.00;;
70049;SDS011;57391;51.306;22.680;2023-09-19T07:57:11;9.00;;;5.50;;
70049;SDS011;57391;51.306;22.680;2023-09-19T07:59:38;8.70;;;5.30;;
70049;SDS011;57391;51.306;22.680;2023-09-19T08:02:05;7.90;;;5.10;;
70049;SDS011;57391;51.306;22.680;2023-09-19T08:04:32;9.30;;;5.20;;
70049;SDS011;57391;51.306;22.680;2023-09-19T08:07:00;7.50;;;5.10;;
70049;SDS011;57391;51.306;22.680;2023-09-19T08:09:26;9.60;;;5.60;;
70049;SDS011;57391;51.306;22.680;2023-09-19T08:11:54;8.10;;;5.50;;
70049;SDS011;57391;51.306;22.680;2023-09-19T08:14:21;11.50;;;6.70;;
70049;SDS011;57391;51.306;22.680;2023-09-19T08:16:49;20.40;;;12.00;;
70049;SDS011;57391;51.306;22.680;2023-09-19T08:19:16;34.00;;;19.80;;
70049;SDS011;57391;51.306;22.680;2023-09-19T08:21:42;12.70;;;7.70;;
70049;SDS011;57391;51.306;22.680;2023-09-19T08:24:13;13.80;;;9.10;;
70049;SDS011;57391;51.306;22.680;2023-09-19T08:26:41;8.90;;;5.60;;
70049;SDS011;57391;51.306;22.680;2023-09-19T08:29:08;9.90;;;5.90;;
70049;SDS011;57391;51.306;22.680;2023-09-19T08:31:38;9.30;;;5.90;;
70049;SDS011;57391;51.306;22.680;2023-09-19T08:34:05;9.60;;;5.80;;
70049;SDS011;57391;51.306;22.680;2023-09-19T08:36:32;8.90;;;5.60;;
70049;SDS011;57391;51.306;22.680;2023-09-19T08:38:59;10.40;;;5.50;;
70049;SDS011;57391;51.306;22.680;2023-09-19T08:41:25;9.50;;;5.30;;
70049;SDS011;57391;51.306;22.680;2023-09-19T08:43:52;9.10;;;5.80;;
70049;SDS011;57391;51.306;22.680;2023-09-19T08:46:20;10.70;;;6.40;;
70049;SDS011;57391;51.306;22.680;2023-09-19T08:51:41;8.60;;;5.70;;
70049;SDS011;57391;51.306;22.680;2023-09-19T08:54:35;9.90;;;6.40;;
70049;SDS011;57391;51.306;22.680;2023-09-19T08:57:07;9.90;;;5.80;;
70049;SDS011;57391;51.306;22.680;2023-09-19T08:59:38;11.20;;;6.20;;
70049;SDS011;57391;51.306;22.680;2023-09-19T09:02:12;12.20;;;6.60;;
70049;SDS011;57391;51.306;22.680;2023-09-19T09:04:43;10.60;;;6.70;;
70049;SDS011;57391;51.306;22.680;2023-09-19T09:07:12;11.00;;;7.00;;
70049;SDS011;57391;51.306;22.680;2023-09-19T09:09:40;10.60;;;7.10;;
70049;SDS011;57391;51.306;22.680;2023-09-19T09:12:12;10.70;;;7.50;;
70049;SDS011;57391;51.306;22.680;2023-09-19T09:14:42;12.00;;;7.20;;
70049;SDS011;57391;51.306;22.680;2023-09-19T09:17:11;11.90;;;6.90;;
70049;SDS011;57391;51.306;22.680;2023-09-19T09:19:38;12.00;;;7.50;;
70049;SDS011;57391;51.306;22.680;2023-09-19T09:22:07;13.20;;;7.40;;
70049;SDS011;57391;51.306;22.680;2023-09-19T09:24:35;14.40;;;7.50;;
70049;SDS011;57391;51.306;22.680;2023-09-19T09:27:05;14.60;;;8.00;;
70049;SDS011;57391;51.306;22.680;2023-09-19T09:29:46;14.70;;;8.30;;
70049;SDS011;57391;51.306;22.680;2023-09-19T09:34:50;13.10;;;8.80;;
70049;SDS011;57391;51.306;22.680;2023-09-19T09:37:22;18.10;;;10.50;;
70049;SDS011;57391;51.306;22.680;2023-09-19T09:39:52;19.20;;;10.70;;
70049;SDS011;57391;51.306;22.680;2023-09-19T09:42:35;17.20;;;10.40;;
70049;SDS011;57391;51.306;22.680;2023-09-19T09:48:01;17.00;;;9.80;;
70049;SDS011;57391;51.306;22.680;2023-09-19T09:50:47;15.40;;;9.60;;
70049;SDS011;57391;51.306;22.680;2023-09-19T09:53:24;16.00;;;9.60;;
70049;SDS011;57391;51.306;22.680;2023-09-19T09:56:03;15.10;;;9.50;;
70049;SDS011;57391;51.306;22.680;2023-09-19T09:58:51;17.40;;;9.30;;
70049;SDS011;57391;51.306;22.680;2023-09-19T10:01:25;14.20;;;8.00;;
70049;SDS011;57391;51.306;22.680;2023-09-19T10:03:59;14.20;;;8.50;;
70049;SDS011;57391;51.306;22.680;2023-09-19T10:06:40;14.20;;;8.20;;
70049;SDS011;57391;51.306;22.680;2023-09-19T10:09:13;12.40;;;8.80;;
70049;SDS011;57391;51.306;22.680;2023-09-19T10:11:44;13.50;;;8.50;;
70049;SDS011;57391;51.306;22.680;2023-09-19T10:14:17;15.40;;;9.40;;
70049;SDS011;57391;51.306;22.680;2023-09-19T10:16:52;18.10;;;10.20;;
70049;SDS011;57391;51.306;22.680;2023-09-19T10:19:33;15.70;;;10.30;;
70049;SDS011;57391;51.306;22.680;2023-09-19T10:22:05;15.40;;;10.40;;
70049;SDS011;57391;51.306;22.680;2023-09-19T10:24:35;16.30;;;9.80;;
70049;SDS011;57391;51.306;22.680;2023-09-19T10:27:06;13.40;;;8.30;;
70049;SDS011;57391;51.306;22.680;2023-09-19T10:29:36;14.30;;;9.40;;
70049;SDS011;57391;51.306;22.680;2023-09-19T10:32:06;15.00;;;8.50;;
70049;SDS011;57391;51.306;22.680;2023-09-19T10:34:36;16.10;;;9.20;;
70049;SDS011;57391;51.306;22.680;2023-09-19T10:37:04;14.40;;;9.20;;
70049;SDS011;57391;51.306;22.680;2023-09-19T10:39:32;14.60;;;9.20;;
70049;SDS011;57391;51.306;22.680;2023-09-19T10:42:02;15.00;;;8.80;;
70049;SDS011;57391;51.306;22.680;2023-09-19T10:44:33;13.40;;;9.00;;
70049;SDS011;57391;51.306;22.680;2023-09-19T10:47:00;15.00;;;9.10;;
70049;SDS011;57391;51.306;22.680;2023-09-19T10:49:27;15.50;;;9.00;;
70049;SDS011;57391;51.306;22.680;2023-09-19T10:51:55;14.70;;;9.20;;
70049;SDS011;57391;51.306;22.680;2023-09-19T10:54:32;16.60;;;10.20;;
70049;SDS011;57391;51.306;22.680;2023-09-19T10:57:03;13.80;;;9.50;;
70049;SDS011;57391;51.306;22.680;2023-09-19T10:59:31;14.50;;;8.90;;
70049;SDS011;57391;51.306;22.680;2023-09-19T11:02:16;15.50;;;9.30;;
70049;SDS011;57391;51.306;22.680;2023-09-19T11:04:44;13.10;;;8.40;;
70049;SDS011;57391;51.306;22.680;2023-09-19T11:07:15;11.20;;;7.70;;
70049;SDS011;57391;51.306;22.680;2023-09-19T11:15:02;8.70;;;6.30;;
70049;SDS011;57391;51.306;22.680;2023-09-19T11:17:41;12.40;;;6.80;;
70049;SDS011;57391;51.306;22.680;2023-09-19T11:28:27;10.10;;;6.90;;
70049;SDS011;57391;51.306;22.680;2023-09-19T11:30:54;9.80;;;6.50;;
70049;SDS011;57391;51.306;22.680;2023-09-19T11:33:31;9.50;;;6.20;;
70049;SDS011;57391;51.306;22.680;2023-09-19T11:46:18;8.90;;;5.90;;
70049;SDS011;57391;51.306;22.680;2023-09-19T11:48:49;10.10;;;6.40;;
70049;SDS011;57391;51.306;22.680;2023-09-19T11:51:19;10.30;;;6.20;;
70049;SDS011;57391;51.306;22.680;2023-09-19T12:02:12;10.00;;;7.30;;
70049;SDS011;57391;51.306;22.680;2023-09-19T12:04:55;10.90;;;7.40;;
70049;SDS011;57391;51.306;22.680;2023-09-19T12:07:22;10.60;;;7.90;;
70049;SDS011;57391;51.306;22.680;2023-09-19T12:10:20;11.40;;;7.80;;
70049;SDS011;57391;51.306;22.680;2023-09-19T12:12:49;11.80;;;8.00;;
70049;SDS011;57391;51.306;22.680;2023-09-19T12:15:22;13.80;;;8.50;;
70049;SDS011;57391;51.306;22.680;2023-09-19T12:17:55;13.30;;;8.70;;
70049;SDS011;57391;51.306;22.680;2023-09-19T12:20:21;13.10;;;9.00;;
70049;SDS011;57391;51.306;22.680;2023-09-19T12:22:49;11.40;;;7.80;;
70049;SDS011;57391;51.306;22.680;2023-09-19T12:25:16;11.20;;;7.90;;
70049;SDS011;57391;51.306;22.680;2023-09-19T12:27:46;13.40;;;8.50;;
70049;SDS011;57391;51.306;22.680;2023-09-19T12:30:15;12.40;;;8.30;;
70049;SDS011;57391;51.306;22.680;2023-09-19T12:32:45;11.50;;;8.10;;
70049;SDS011;57391;51.306;22.680;2023-09-19T12:35:31;12.60;;;8.70;;
70049;SDS011;57391;51.306;22.680;2023-09-19T12:38:05;12.20;;;8.30;;
70049;SDS011;57391;51.306;22.680;2023-09-19T12:40:33;12.20;;;8.60;;
70049;SDS011;57391;51.306;22.680;2023-09-19T12:43:02;11.20;;;8.20;;
70049;SDS011;57391;51.306;22.680;2023-09-19T12:45:31;12.40;;;8.40;;
70049;SDS011;57391;51.306;22.680;2023-09-19T12:48:24;12.20;;;8.30;;
70049;SDS011;57391;51.306;22.680;2023-09-19T12:51:07;11.90;;;8.10;;
70049;SDS011;57391;51.306;22.680;2023-09-19T12:53:40;11.30;;;7.70;;
70049;SDS011;57391;51.306;22.680;2023-09-19T12:56:10;12.90;;;8.20;;
70049;SDS011;57391;51.306;22.680;2023-09-19T13:01:29;14.30;;;7.90;;
70049;SDS011;57391;51.306;22.680;2023-09-19T13:06:46;12.30;;;8.20;;
70049;SDS011;57391;51.306;22.680;2023-09-19T13:09:16;10.50;;;7.30;;
70049;SDS011;57391;51.306;22.680;2023-09-19T13:11:44;11.70;;;8.20;;
70049;SDS011;57391;51.306;22.680;2023-09-19T13:14:29;12.50;;;8.70;;
70049;SDS011;57391;51.306;22.680;2023-09-19T13:17:10;11.70;;;8.20;;
70049;SDS011;57391;51.306;22.680;2023-09-19T13:19:50;13.20;;;8.00;;
70049;SDS011;57391;51.306;22.680;2023-09-19T13:22:40;11.20;;;8.30;;
70049;SDS011;57391;51.306;22.680;2023-09-19T13:25:14;10.50;;;7.70;;
70049;SDS011;57391;51.306;22.680;2023-09-19T13:27:46;12.30;;;7.50;;
70049;SDS011;57391;51.306;22.680;2023-09-19T13:30:18;11.70;;;8.40;;
70049;SDS011;57391;51.306;22.680;2023-09-19T13:32:46;13.70;;;8.30;;
70049;SDS011;57391;51.306;22.680;2023-09-19T13:35:15;12.80;;;8.60;;
70049;SDS011;57391;51.306;22.680;2023-09-19T13:37:43;11.90;;;8.30;;
70049;SDS011;57391;51.306;22.680;2023-09-19T13:40:14;10.50;;;7.50;;
70049;SDS011;57391;51.306;22.680;2023-09-19T13:42:43;12.30;;;8.20;;
70049;SDS011;57391;51.306;22.680;2023-09-19T13:45:10;11.80;;;8.50;;
70049;SDS011;57391;51.306;22.680;2023-09-19T13:47:39;10.80;;;7.70;;
70049;SDS011;57391;51.306;22.680;2023-09-19T13:50:07;10.90;;;8.10;;
70049;SDS011;57391;51.306;22.680;2023-09-19T13:52:34;10.40;;;7.90;;
70049;SDS011;57391;51.306;22.680;2023-09-19T13:55:01;11.00;;;7.90;;
70049;SDS011;57391;51.306;22.680;2023-09-19T13:57:28;9.60;;;7.30;;
70049;SDS011;57391;51.306;22.680;2023-09-19T13:59:56;11.30;;;7.90;;
70049;SDS011;57391;51.306;22.680;2023-09-19T14:02:23;12.20;;;8.40;;
70049;SDS011;57391;51.306;22.680;2023-09-19T14:04:54;9.70;;;7.20;;
70049;SDS011;57391;51.306;22.680;2023-09-19T14:07:21;10.60;;;7.70;;
70049;SDS011;57391;51.306;22.680;2023-09-19T14:09:48;8.70;;;6.70;;
70049;SDS011;57391;51.306;22.680;2023-09-19T14:12:15;9.60;;;7.00;;
70049;SDS011;57391;51.306;22.680;2023-09-19T14:14:42;10.60;;;7.50;;
70049;SDS011;57391;51.306;22.680;2023-09-19T14:17:09;9.80;;;6.90;;
70049;SDS011;57391;51.306;22.680;2023-09-19T14:19:36;10.50;;;6.50;;
70049;SDS011;57391;51.306;22.680;2023-09-19T14:22:03;10.70;;;7.40;;
70049;SDS011;57391;51.306;22.680;2023-09-19T14:24:34;11.00;;;8.20;;
70049;SDS011;57391;51.306;22.680;2023-09-19T14:27:01;12.40;;;8.10;;
70049;SDS011;57391;51.306;22.680;2023-09-19T14:29:31;11.40;;;8.20;;
70049;SDS011;57391;51.306;22.680;2023-09-19T14:31:57;10.20;;;7.80;;
70049;SDS011;57391;51.306;22.680;2023-09-19T14:34:24;10.30;;;8.20;;
70049;SDS011;57391;51.306;22.680;2023-09-19T14:36:51;12.00;;;7.70;;
70049;SDS011;57391;51.306;22.680;2023-09-19T14:39:18;10.10;;;7.40;;
70049;SDS011;57391;51.306;22.680;2023-09-19T14:41:46;9.90;;;6.80;;
70049;SDS011;57391;51.306;22.680;2023-09-19T14:44:13;12.10;;;7.30;;
70049;SDS011;57391;51.306;22.680;2023-09-19T14:46:42;10.80;;;7.30;;
70049;SDS011;57391;51.306;22.680;2023-09-19T14:49:12;9.50;;;7.30;;
70049;SDS011;57391;51.306;22.680;2023-09-19T14:51:39;9.40;;;6.60;;
70049;SDS011;57391;51.306;22.680;2023-09-19T14:54:06;10.60;;;6.90;;
70049;SDS011;57391;51.306;22.680;2023-09-19T14:56:34;9.30;;;6.90;;
70049;SDS011;57391;51.306;22.680;2023-09-19T14:59:01;9.00;;;7.00;;
70049;SDS011;57391;51.306;22.680;2023-09-19T15:01:29;9.80;;;6.60;;
70049;SDS011;57391;51.306;22.680;2023-09-19T15:03:56;8.80;;;6.10;;
70049;SDS011;57391;51.306;22.680;2023-09-19T15:06:23;10.10;;;6.80;;
70049;SDS011;57391;51.306;22.680;2023-09-19T15:08:52;9.90;;;7.20;;
70049;SDS011;57391;51.306;22.680;2023-09-19T15:11:20;10.20;;;7.00;;
70049;SDS011;57391;51.306;22.680;2023-09-19T15:13:50;11.60;;;7.50;;
70049;SDS011;57391;51.306;22.680;2023-09-19T15:16:18;9.90;;;7.10;;
70049;SDS011;57391;51.306;22.680;2023-09-19T15:18:46;10.60;;;7.10;;
70049;SDS011;57391;51.306;22.680;2023-09-19T15:21:16;10.50;;;7.30;;
70049;SDS011;57391;51.306;22.680;2023-09-19T15:23:43;11.60;;;7.60;;
70049;SDS011;57391;51.306;22.680;2023-09-19T15:26:12;10.90;;;7.80;;
70049;SDS011;57391;51.306;22.680;2023-09-19T15:28:40;10.70;;;7.50;;
70049;SDS011;57391;51.306;22.680;2023-09-19T15:31:09;11.20;;;8.40;;
70049;SDS011;57391;51.306;22.680;2023-09-19T15:33:37;9.60;;;7.30;;
70049;SDS011;57391;51.306;22.680;2023-09-19T15:36:06;10.50;;;8.00;;
70049;SDS011;57391;51.306;22.680;2023-09-19T15:39:08;13.90;;;8.00;;
70049;SDS011;57391;51.306;22.680;2023-09-19T15:41:39;12.90;;;8.90;;